Terminal Aerodrome Forecast
Issued by NWS

Home | Current Version | Previous Version | Graphics & Text | Print | Product List | Glossary Off
Versions: 1 2 3 4 5 6 7 8 9 10 11 12 13 14 15 16 17 18 19 20 21 22 23 24 25 26 27 28 29 30 31 32 33 34 35 36 37 38 39

700
FTUS43 KDDC 170520
TAFHYS
TAF
KHYS 170520Z 1706/1806 16009KT P6SM SCT250
     FM171400 21008KT P6SM BKN200
     FM171800 24009KT P6SM SCT250
     FM180000 35009KT P6SM SCT250
     FM180400 34013KT P6SM SCT200=

USA.gov is the U.S. government's official web portal to all federal, state and local government web resources and services.